Time;durP1;ratioP1;P1;durP2;ratioP2;P2;SDS_P1;SDS_P2;PMS_P1;PMS_P2;Temp;Humidity;BMP_temperature;BMP_pressure;BME280_temperature;BME280_humidity;BME280_pressure;Samples;Min_cycle;Max_cycle;Signal;HPM_P1;HPM_P2
2023/04/07 00:01:46;;;;;;;;;;;;;;;;;;5089206;28;20011;-66
2023/04/07 00:04:12;;;;;;;;;;;;;;;;;;5089625;28;19956;-65
2023/04/07 00:06:39;;;;;;;;;;;;;;;;;;5091300;28;20023;-66
2023/04/07 00:09:05;;;;;;;;;;;;;;;;;;5071700;28;19924;-66
2023/04/07 00:11:31;;;;;;;;;;;;;;;;;;5088422;28;20638;-66
2023/04/07 00:13:57;;;;;;;;;;;;;;;;;;5082998;28;19924;-66
2023/04/07 00:16:23;;;;;;;;;;;;;;;;;;5081114;28;19927;-66
2023/04/07 00:18:48;;;;;;;;;;;;;;;;;;5086743;28;20389;-64
2023/04/07 00:21:14;;;;;;;;;;;;;;;;;;5071623;28;19924;-65
2023/04/07 00:23:41;;;;;;;;;;;;;;;;;;5072117;28;20379;-66
2023/04/07 00:26:07;;;;;;;;;;;;;;;;;;5089823;28;19920;-66
2023/04/07 00:28:33;;;;;;;;;;;;;;;;;;5088331;28;20373;-66
2023/04/07 00:30:59;;;;;;;;;;;;;;;;;;5065214;28;20054;-67
2023/04/07 00:33:25;;;;;;;;;;;;;;;;;;5088855;28;20347;-67
2023/04/07 00:35:53;;;;;;;;;;;;;;;;;;5087576;28;20040;-66
2023/04/07 00:38:18;;;;;;;;;;;;;;;;;;5089787;28;19920;-66
2023/04/07 00:40:44;;;;;;;;;;;;;;;;;;5072661;28;19927;-66
2023/04/07 00:43:10;;;;;;;;;;;;;;;;;;5076283;28;19958;-67
2023/04/07 00:45:36;;;;;;;;;;;;;;;;;;5094527;28;19980;-67
2023/04/07 00:48:02;;;;;;;;;;;;;;;;;;5093619;28;19920;-66
2023/04/07 00:50:28;;;;;;;;;;;;;;;;;;5077123;28;19921;-67
2023/04/07 00:52:55;;;;;;;;;;;;;;;;;;5078592;28;20500;-66
2023/04/07 00:55:21;;;;;;;;;;;;;;;;;;5091167;28;20580;-66
2023/04/07 00:57:47;;;;;;;;;;;;;;;;;;5074941;28;20011;-67
2023/04/07 01:00:14;;;;;;;;;;;;;;;;;;5091778;28;19920;-66
2023/04/07 01:02:40;;;;;;;;;;;;;;;;;;5087791;28;20296;-66
2023/04/07 01:05:06;;;;;;;;;;;;;;;;;;5069513;28;20034;-65
2023/04/07 01:07:32;;;;;;;;;;;;;;;;;;5060277;28;19925;-66
2023/04/07 01:10:01;;;;;;;;;;;;;;;;;;5059613;28;19943;-66
2023/04/07 01:12:27;;;;;;;;;;;;;;;;;;5091733;28;19995;-66
2023/04/07 01:14:52;;;;;;;;;;;;;;;;;;5091629;28;20346;-66
2023/04/07 01:17:18;;;;;;;;;;;;;;;;;;5072854;28;19920;-65
2023/04/07 01:19:45;;;;;;;;;;;;;;;;;;5091943;28;19920;-66
2023/04/07 01:22:11;;;;;;;;;;;;;;;;;;5091260;28;20525;-66
2023/04/07 01:24:36;;;;;;;;;;;;;;;;;;5074820;28;19949;-61
2023/04/07 01:27:02;;;;;;;;;;;;;;;;;;5093600;28;20024;-61
2023/04/07 01:29:30;;;;;;;;;;;;;;;;;;5071517;28;19920;-61
2023/04/07 01:31:56;;;;;;;;;;;;;;;;;;5074268;28;19970;-64
2023/04/07 01:34:21;;;;;;;;;;;;;;;;;;5094466;28;19959;-65
2023/04/07 01:36:47;;;;;;;;;;;;;;;;;;5090729;28;19981;-62
2023/04/07 01:39:13;;;;;;;;;;;;;;;;;;5089434;28;19924;-62
2023/04/07 01:41:39;;;;;;;;;;;;;;;;;;5091899;28;19928;-62
2023/04/07 01:44:05;;;;;;;;;;;;;;;;;;5093620;28;20061;-62
2023/04/07 01:46:31;;;;;;;;;;;;;;;;;;5089282;28;20401;-62
2023/04/07 01:48:57;;;;;;;;;;;;;;;;;;5081676;28;19925;-62
2023/04/07 01:51:23;;;;;;;;;;;;;;;;;;5090638;28;19927;-61
2023/04/07 01:53:49;;;;;;;;;;;;;;;;;;5091093;28;20277;-62
2023/04/07 01:56:15;;;;;;;;;;;;;;;;;;5093195;28;19924;-62
2023/04/07 01:58:41;;;;;;;;;;;;;;;;;;5093160;28;20266;-63
2023/04/07 02:01:07;;;;;;;;;;;;;;;;;;5092063;28;19924;-63
2023/04/07 02:03:33;;;;;;;;;;;;;;;;;;5073154;28;19946;-61
2023/04/07 02:05:59;;;;;;;;;;;;;;;;;;5091589;28;19938;-61
2023/04/07 02:08:25;;;;;;;;;;;;;;;;;;5093498;28;19924;-61
2023/04/07 02:10:51;;;;;;;;;;;;;;;;;;5092428;28;19927;-61
2023/04/07 02:13:17;;;;;;;;;;;;;;;;;;5075500;28;20448;-62
2023/04/07 02:15:44;;;;;;;;;;;;;;;;;;5090726;28;19928;-62
2023/04/07 02:18:11;;;;;;;;;;;;;;;;;;5091118;28;19983;-62
2023/04/07 02:20:37;;;;;;;;;;;;;;;;;;5092583;28;19924;-62
2023/04/07 02:23:03;;;;;;;;;;;;;;;;;;5090040;28;20507;-62
2023/04/07 02:25:29;;;;;;;;;;;;;;;;;;5093467;28;19931;-62
2023/04/07 02:27:55;;;;;;;;;;;;;;;;;;5089621;28;19971;-62
2023/04/07 02:30:21;;;;;;;;;;;;;;;;;;5088523;28;19927;-62
2023/04/07 02:32:47;;;;;;;;;;;;;;;;;;5082204;28;19920;-62
2023/04/07 02:35:13;;;;;;;;;;;;;;;;;;5074835;28;19942;-62
2023/04/07 02:37:39;;;;;;;;;;;;;;;;;;5089581;28;19924;-62
2023/04/07 02:40:05;;;;;;;;;;;;;;;;;;5089675;28;19975;-63
2023/04/07 02:42:31;;;;;;;;;;;;;;;;;;5090785;28;20049;-62
2023/04/07 02:44:57;;;;;;;;;;;;;;;;;;5073765;28;20059;-62
2023/04/07 02:47:23;;;;;;;;;;;;;;;;;;5065696;28;19920;-62
2023/04/07 02:49:48;;;;;;;;;;;;;;;;;;5092274;28;19920;-62
2023/04/07 02:52:15;;;;;;;;;;;;;;;;;;5091164;28;19920;-62
2023/04/07 02:54:41;;;;;;;;;;;;;;;;;;5089991;28;19981;-62
2023/04/07 02:57:06;;;;;;;;;;;;;;;;;;5086152;28;19955;-62
2023/04/07 02:59:32;;;;;;;;;;;;;;;;;;5079723;28;19928;-62
2023/04/07 03:01:58;;;;;;;;;;;;;;;;;;5089129;28;19928;-62
2023/04/07 03:04:24;;;;;;;;;;;;;;;;;;5065827;28;20007;-62
2023/04/07 03:06:50;;;;;;;;;;;;;;;;;;5087245;28;19924;-62
2023/04/07 03:09:16;;;;;;;;;;;;;;;;;;5088526;28;19928;-62
2023/04/07 03:11:42;;;;;;;;;;;;;;;;;;5090695;28;19928;-62
2023/04/07 03:14:08;;;;;;;;;;;;;;;;;;5089040;28;19920;-63
2023/04/07 03:16:34;;;;;;;;;;;;;;;;;;5090554;28;20304;-63
2023/04/07 03:19:00;;;;;;;;;;;;;;;;;;5088373;28;20001;-63
2023/04/07 03:21:27;;;;;;;;;;;;;;;;;;5096067;28;19932;-63
2023/04/07 03:23:53;;;;;;;;;;;;;;;;;;5062176;28;19920;-63
2023/04/07 03:26:20;;;;;;;;;;;;;;;;;;5091890;28;19924;-63
2023/04/07 03:28:46;;;;;;;;;;;;;;;;;;5089055;28;19962;-62
2023/04/07 03:31:12;;;;;;;;;;;;;;;;;;5091333;28;20324;-61
2023/04/07 03:33:38;;;;;;;;;;;;;;;;;;5086637;28;20022;-62
2023/04/07 03:36:04;;;;;;;;;;;;;;;;;;5073285;28;19920;-61
2023/04/07 03:38:30;;;;;;;;;;;;;;;;;;5089581;28;20019;-62
2023/04/07 03:40:56;;;;;;;;;;;;;;;;;;5088263;28;20499;-62
2023/04/07 03:43:22;;;;;;;;;;;;;;;;;;5073527;28;19924;-62
2023/04/07 03:45:48;;;;;;;;;;;;;;;;;;5083535;28;19955;-63
2023/04/07 03:48:13;;;;;;;;;;;;;;;;;;5090312;28;19920;-63
2023/04/07 03:50:39;;;;;;;;;;;;;;;;;;5089938;28;20510;-62
2023/04/07 03:53:05;;;;;;;;;;;;;;;;;;5091206;28;19924;-62
2023/04/07 03:55:31;;;;;;;;;;;;;;;;;;5079410;28;19920;-62
2023/04/07 03:57:57;;;;;;;;;;;;;;;;;;5072959;28;19927;-62
2023/04/07 04:00:23;;;;;;;;;;;;;;;;;;5090267;28;19920;-61
2023/04/07 04:02:49;;;;;;;;;;;;;;;;;;5092182;28;20387;-61
2023/04/07 04:05:15;;;;;;;;;;;;;;;;;;5090582;28;19993;-61
2023/04/07 04:07:41;;;;;;;;;;;;;;;;;;5081286;28;19925;-62
2023/04/07 04:10:07;;;;;;;;;;;;;;;;;;5071474;28;19920;-62
2023/04/07 04:12:32;;;;;;;;;;;;;;;;;;5089796;28;20305;-62
2023/04/07 04:14:58;;;;;;;;;;;;;;;;;;5088565;28;20549;-62
2023/04/07 04:17:25;;;;;;;;;;;;;;;;;;5075908;28;19920;-62
2023/04/07 04:19:51;;;;;;;;;;;;;;;;;;5073960;28;20274;-62
2023/04/07 04:22:16;;;;;;;;;;;;;;;;;;5075032;28;19935;-63
2023/04/07 04:24:42;;;;;;;;;;;;;;;;;;5082300;28;20384;-61
2023/04/07 04:27:08;;;;;;;;;;;;;;;;;;5094223;28;19964;-61
2023/04/07 04:29:34;;;;;;;;;;;;;;;;;;5093776;28;20648;-62
2023/04/07 04:32:00;;;;;;;;;;;;;;;;;;5094338;28;19927;-62
2023/04/07 04:34:26;;;;;;;;;;;;;;;;;;5093679;28;19919;-62
2023/04/07 04:36:52;;;;;;;;;;;;;;;;;;5092626;28;19920;-62
2023/04/07 04:39:18;;;;;;;;;;;;;;;;;;5093311;28;19924;-62
2023/04/07 04:41:44;;;;;;;;;;;;;;;;;;5074808;28;20454;-62
2023/04/07 04:44:11;;;;;;;;;;;;;;;;;;5076390;28;19946;-62
2023/04/07 04:46:37;;;;;;;;;;;;;;;;;;5093713;28;19935;-63
2023/04/07 04:49:02;;;;;;;;;;;;;;;;;;5092739;28;19920;-63
2023/04/07 04:51:28;;;;;;;;;;;;;;;;;;5072202;28;19928;-62
2023/04/07 04:53:54;;;;;;;;;;;;;;;;;;5075564;28;20002;-63
2023/04/07 04:56:20;;;;;;;;;;;;;;;;;;5076026;28;20432;-63
2023/04/07 04:58:46;;;;;;;;;;;;;;;;;;5093872;28;19924;-63
2023/04/07 05:01:12;;;;;;;;;;;;;;;;;;5069178;28;19924;-63
2023/04/07 05:03:38;;;;;;;;;;;;;;;;;;5091535;28;19920;-63
2023/04/07 05:06:04;;;;;;;;;;;;;;;;;;5092563;28;19974;-63
2023/04/07 05:08:30;;;;;;;;;;;;;;;;;;5094182;28;19943;-63
2023/04/07 05:10:56;;;;;;;;;;;;;;;;;;5093139;28;19920;-63
2023/04/07 05:13:22;;;;;;;;;;;;;;;;;;5091340;28;19928;-63
2023/04/07 05:15:48;;;;;;;;;;;;;;;;;;5091734;28;19928;-62
2023/04/07 05:18:13;;;;;;;;;;;;;;;;;;5091501;28;20014;-61
2023/04/07 05:20:39;;;;;;;;;;;;;;;;;;5084649;28;19974;-66
2023/04/07 05:23:05;;;;;;;;;;;;;;;;;;5092097;28;19928;-65
2023/04/07 05:25:31;;;;;;;;;;;;;;;;;;5073747;28;19984;-65
2023/04/07 05:27:57;;;;;;;;;;;;;;;;;;5076655;28;19924;-66
2023/04/07 05:30:23;;;;;;;;;;;;;;;;;;5078730;28;19938;-66
2023/04/07 05:32:49;;;;;;;;;;;;;;;;;;5091958;28;20379;-66
2023/04/07 05:35:15;;;;;;;;;;;;;;;;;;5090222;28;19980;-66
2023/04/07 05:37:41;;;;;;;;;;;;;;;;;;5092371;28;19920;-66
2023/04/07 05:40:07;;;;;;;;;;;;;;;;;;5091775;28;19951;-66
2023/04/07 05:42:33;;;;;;;;;;;;;;;;;;5090790;28;19928;-66
2023/04/07 05:44:59;;;;;;;;;;;;;;;;;;5090551;28;19920;-66
2023/04/07 05:47:25;;;;;;;;;;;;;;;;;;5089644;28;19931;-67
2023/04/07 05:49:51;;;;;;;;;;;;;;;;;;5091014;28;19978;-66
2023/04/07 05:52:17;;;;;;;;;;;;;;;;;;5074429;28;20604;-63
2023/04/07 05:54:43;;;;;;;;;;;;;;;;;;5092443;28;20266;-62
2023/04/07 05:57:09;;;;;;;;;;;;;;;;;;5091311;28;21534;-63
2023/04/07 05:59:35;;;;;;;;;;;;;;;;;;5092197;28;19928;-62
2023/04/07 06:02:01;;;;;;;;;;;;;;;;;;5070485;28;19924;-61
2023/04/07 06:04:27;;;;;;;;;;;;;;;;;;5092739;28;20456;-61
2023/04/07 06:06:56;;;;;;;;;;;;;;;;;;5092996;28;20045;-61
2023/04/07 06:09:22;;;;;;;;;;;;;;;;;;5073402;28;19942;-62
2023/04/07 06:11:48;;;;;;;;;;;;;;;;;;5081364;28;19920;-61
2023/04/07 06:14:13;;;;;;;;;;;;;;;;;;5090952;28;20323;-61
2023/04/07 06:16:39;;;;;;;;;;;;;;;;;;5075897;28;19927;-61
2023/04/07 06:19:06;;;;;;;;;;;;;;;;;;5097927;28;19970;-62
2023/04/07 06:21:31;;;;;;;;;;;;;;;;;;5096266;28;19935;-63
2023/04/07 06:23:57;;;;;;;;;;;;;;;;;;5073089;28;19922;-62
2023/04/07 06:26:23;;;;;;;;;;;;;;;;;;5074020;28;20335;-61
2023/04/07 06:28:49;;;;;;;;;;;;;;;;;;5093675;28;19924;-62
2023/04/07 06:31:15;;;;;;;;;;;;;;;;;;5093812;28;19931;-63
2023/04/07 06:33:41;;;;;;;;;;;;;;;;;;5091245;28;19927;-61
2023/04/07 06:36:07;;;;;;;;;;;;;;;;;;5092939;28;20370;-62
2023/04/07 06:38:33;;;;;;;;;;;;;;;;;;5074665;28;19957;-62
2023/04/07 06:40:59;;;;;;;;;;;;;;;;;;5092393;28;19920;-62
2023/04/07 06:43:25;;;;;;;;;;;;;;;;;;5066626;28;19929;-61
2023/04/07 06:45:50;;;;;;;;;;;;;;;;;;5084111;28;19920;-62
2023/04/07 06:48:16;;;;;;;;;;;;;;;;;;5090284;28;19926;-62
2023/04/07 06:50:42;;;;;;;;;;;;;;;;;;5093223;28;19920;-62
2023/04/07 06:53:08;;;;;;;;;;;;;;;;;;5073468;28;19927;-62
2023/04/07 06:55:34;;;;;;;;;;;;;;;;;;5054270;28;19921;-62
2023/04/07 06:58:00;;;;;;;;;;;;;;;;;;5054554;28;19963;-62
2023/04/07 07:00:29;;;;;;;;;;;;;;;;;;5054735;28;19974;-62
2023/04/07 07:02:55;;;;;;;;;;;;;;;;;;5076941;28;20008;-62
2023/04/07 07:05:22;;;;;;;;;;;;;;;;;;5092758;28;19959;-62
2023/04/07 07:07:48;;;;;;;;;;;;;;;;;;5093397;28;19924;-62
2023/04/07 07:10:14;;;;;;;;;;;;;;;;;;5089566;28;19990;-64
2023/04/07 07:12:40;;;;;;;;;;;;;;;;;;5086144;28;19920;-62
2023/04/07 07:15:06;;;;;;;;;;;;;;;;;;5084285;28;20373;-62
2023/04/07 07:17:32;;;;;;;;;;;;;;;;;;5072898;28;19928;-62
2023/04/07 07:19:58;;;;;;;;;;;;;;;;;;5082308;28;19920;-63
2023/04/07 07:22:24;;;;;;;;;;;;;;;;;;5091288;28;19935;-62
2023/04/07 07:24:50;;;;;;;;;;;;;;;;;;5092070;28;19945;-63
2023/04/07 07:27:16;;;;;;;;;;;;;;;;;;5064526;28;19921;-62
2023/04/07 07:29:42;;;;;;;;;;;;;;;;;;5090013;28;20700;-62
2023/04/07 07:32:08;;;;;;;;;;;;;;;;;;5086677;28;19932;-63
2023/04/07 07:34:34;;;;;;;;;;;;;;;;;;5090286;28;19943;-62
2023/04/07 07:37:00;;;;;;;;;;;;;;;;;;5055533;28;19928;-62
2023/04/07 07:39:25;;;;;;;;;;;;;;;;;;5050103;28;19928;-62
2023/04/07 07:41:51;;;;;;;;;;;;;;;;;;5091538;28;20337;-63
2023/04/07 07:44:21;;;;;;;;;;;;;;;;;;5071255;28;19935;-62
2023/04/07 07:46:47;;;;;;;;;;;;;;;;;;5085717;28;20459;-62
2023/04/07 07:49:13;;;;;;;;;;;;;;;;;;5089446;28;19924;-62
2023/04/07 07:51:39;;;;;;;;;;;;;;;;;;5076613;28;19924;-62
2023/04/07 07:54:05;;;;;;;;;;;;;;;;;;5091770;28;19928;-63
2023/04/07 07:56:31;;;;;;;;;;;;;;;;;;5093189;28;20014;-62
2023/04/07 07:58:57;;;;;;;;;;;;;;;;;;5071657;28;20559;-62
2023/04/07 08:01:23;;;;;;;;;;;;;;;;;;5076794;28;19930;-63
2023/04/07 08:03:50;;;;;;;;;;;;;;;;;;5084287;28;19923;-62
2023/04/07 08:06:16;;;;;;;;;;;;;;;;;;5075677;28;19935;-62
2023/04/07 08:08:42;;;;;;;;;;;;;;;;;;5082782;28;19966;-62
2023/04/07 08:11:08;;;;;;;;;;;;;;;;;;5094241;28;19928;-62
2023/04/07 08:13:34;;;;;;;;;;;;;;;;;;5102502;28;19920;-62
2023/04/07 08:16:00;;;;;;;;;;;;;;;;;;5107249;28;19920;-62
2023/04/07 08:18:26;;;;;;;;;;;;;;;;;;5095791;28;19969;-62
2023/04/07 08:20:52;;;;;;;;;;;;;;;;;;5094139;28;19969;-62
2023/04/07 08:23:18;;;;;;;;;;;;;;;;;;5094184;28;19924;-62
2023/04/07 08:25:44;;;;;;;;;;;;;;;;;;5095347;28;20274;-62
2023/04/07 08:28:10;;;;;;;;;;;;;;;;;;5072778;28;19924;-62
2023/04/07 08:30:36;;;;;;;;;;;;;;;;;;5080169;28;19935;-61
2023/04/07 08:33:02;;;;;;;;;;;;;;;;;;5075880;28;19920;-61
2023/04/07 08:35:28;;;;;;;;;;;;;;;;;;5082268;28;19929;-61
2023/04/07 08:37:54;;;;;;;;;;;;;;;;;;5057663;28;19924;-61
2023/04/07 08:40:20;;;;;;;;;;;;;;;;;;5057473;28;20555;-61
2023/04/07 08:42:46;;;;;;;;;;;;;;;;;;5075036;28;19930;-62
2023/04/07 08:45:12;;;;;;;;;;;;;;;;;;5075175;28;20016;-62
2023/04/07 08:47:38;;;;;;;;;;;;;;;;;;5075332;28;20372;-61
2023/04/07 08:50:04;;;;;;;;;;;;;;;;;;5068545;28;19974;-61
2023/04/07 08:52:30;;;;;;;;;;;;;;;;;;5077042;28;19920;-62
2023/04/07 08:54:57;;;;;;;;;;;;;;;;;;5095666;28;19967;-62
2023/04/07 08:57:22;;;;;;;;;;;;;;;;;;5094568;28;19966;-62
2023/04/07 08:59:50;;;;;;;;;;;;;;;;;;5094365;28;19974;-62
2023/04/07 09:02:16;;;;;;;;;;;;;;;;;;5092881;28;20469;-63
2023/04/07 09:04:42;;;;;;;;;;;;;;;;;;5094654;28;19975;-63
2023/04/07 09:07:07;;;;;;;;;;;;;;;;;;5084499;28;19978;-63
2023/04/07 09:09:33;;;;;;;;;;;;;;;;;;5055888;28;19920;-64
2023/04/07 09:11:59;;;;;;;;;;;;;;;;;;5072474;28;19920;-62
2023/04/07 09:14:25;;;;;;;;;;;;;;;;;;5064020;28;19928;-62
2023/04/07 09:16:51;;;;;;;;;;;;;;;;;;5093879;28;19946;-62
2023/04/07 09:19:17;;;;;;;;;;;;;;;;;;5094637;22;19924;-69
2023/04/07 09:21:43;;;;;;;;;;;;;;;;;;5037542;28;20384;-71
2023/04/07 09:24:09;;;;;;;;;;;;;;;;;;5068258;28;19921;-71
2023/04/07 09:26:35;;;;;;;;;;;;;;;;;;5047085;28;19924;-71
2023/04/07 09:29:02;;;;;;;;;;;;;;;;;;5042030;28;19928;-71
2023/04/07 09:31:28;;;;;;;;;;;;;;;;;;5049397;28;19956;-71
2023/04/07 09:33:54;;;;;;;;;;;;;;;;;;5037258;28;20432;-71
2023/04/07 09:36:20;;;;;;;;;;;;;;;;;;5048405;28;19921;-71
2023/04/07 09:38:46;;;;;;;;;;;;;;;;;;5073765;28;19966;-72
2023/04/07 09:41:12;;;;;;;;;;;;;;;;;;5054498;28;19967;-72
2023/04/07 09:43:38;;;;;;;;;;;;;;;;;;5054229;28;19943;-69
2023/04/07 09:46:07;;;;;;;;;;;;;;;;;;5067520;28;19921;-69
2023/04/07 09:48:33;;;;;;;;;;;;;;;;;;5073270;28;19974;-70
2023/04/07 09:50:59;;;;;;;;;;;;;;;;;;5037677;28;19974;-70
2023/04/07 09:53:25;;;;;;;;;;;;;;;;;;5050548;28;19928;-69
2023/04/07 09:55:51;;;;;;;;;;;;;;;;;;5073042;28;19921;-68
2023/04/07 09:58:17;;;;;;;;;;;;;;;;;;5037283;28;19924;-68
2023/04/07 10:00:43;;;;;;;;;;;;;;;;;;5068521;28;19935;-69
2023/04/07 10:03:09;;;;;;;;;;;;;;;;;;5071017;28;19966;-69
2023/04/07 10:05:35;;;;;;;;;;;;;;;;;;5068872;28;20231;-69
2023/04/07 10:08:01;;;;;;;;;;;;;;;;;;5055196;28;19924;-69
2023/04/07 10:10:27;;;;;;;;;;;;;;;;;;5072240;28;19921;-69
2023/04/07 10:12:54;;;;;;;;;;;;;;;;;;5073070;28;20002;-69
2023/04/07 10:15:21;;;;;;;;;;;;;;;;;;5051567;28;19921;-69
2023/04/07 10:17:47;;;;;;;;;;;;;;;;;;5071243;28;19921;-70
2023/04/07 10:20:13;;;;;;;;;;;;;;;;;;5067912;28;19928;-70
2023/04/07 10:22:39;;;;;;;;;;;;;;;;;;5091055;28;19920;-70
2023/04/07 10:25:05;;;;;;;;;;;;;;;;;;5072674;28;19920;-70
2023/04/07 10:27:31;;;;;;;;;;;;;;;;;;5054657;28;19921;-67
2023/04/07 10:29:57;;;;;;;;;;;;;;;;;;5060307;28;19974;-71
2023/04/07 10:32:23;;;;;;;;;;;;;;;;;;5071724;28;20016;-71
2023/04/07 10:34:49;;;;;;;;;;;;;;;;;;5086147;28;19956;-72
2023/04/07 10:37:17;;;;;;;;;;;;;;;;;;5068349;28;20010;-71
2023/04/07 10:39:43;;;;;;;;;;;;;;;;;;5069675;28;20281;-72
2023/04/07 10:42:09;;;;;;;;;;;;;;;;;;5086625;28;20355;-71
2023/04/07 10:44:36;;;;;;;;;;;;;;;;;;5074247;28;19923;-69
2023/04/07 10:47:02;;;;;;;;;;;;;;;;;;5091013;28;19963;-69
2023/04/07 10:49:28;;;;;;;;;;;;;;;;;;5072791;28;20145;-69
2023/04/07 10:51:54;;;;;;;;;;;;;;;;;;5056138;28;19927;-69
2023/04/07 10:54:20;;;;;;;;;;;;;;;;;;5073993;28;20301;-68
2023/04/07 10:56:45;;;;;;;;;;;;;;;;;;5092252;28;19930;-68
2023/04/07 10:59:11;;;;;;;;;;;;;;;;;;5057292;28;20376;-68
2023/04/07 11:01:37;;;;;;;;;;;;;;;;;;5057668;28;19982;-68
2023/04/07 11:04:07;;;;;;;;;;;;;;;;;;5073719;28;22377;-69
2023/04/07 11:06:33;;;;;;;;;;;;;;;;;;5092576;28;19963;-69
2023/04/07 11:08:59;;;;;;;;;;;;;;;;;;5070870;28;20375;-69
2023/04/07 11:11:25;;;;;;;;;;;;;;;;;;5072307;28;19929;-69
2023/04/07 11:13:51;;;;;;;;;;;;;;;;;;5054237;28;19924;-69
2023/04/07 11:16:17;;;;;;;;;;;;;;;;;;5072345;28;20368;-69
2023/04/07 11:18:43;;;;;;;;;;;;;;;;;;5053669;28;19921;-69
2023/04/07 11:21:09;;;;;;;;;;;;;;;;;;5071883;28;19932;-69
2023/04/07 11:23:35;;;;;;;;;;;;;;;;;;5037997;28;20377;-69
2023/04/07 11:26:01;;;;;;;;;;;;;;;;;;5071771;28;19920;-69
2023/04/07 11:28:27;;;;;;;;;;;;;;;;;;5053971;28;19924;-68
2023/04/07 11:30:53;;;;;;;;;;;;;;;;;;5071598;28;19924;-68
2023/04/07 11:33:19;;;;;;;;;;;;;;;;;;5071366;28;20418;-68
2023/04/07 11:35:45;;;;;;;;;;;;;;;;;;5071867;28;19965;-68
2023/04/07 11:38:11;;;;;;;;;;;;;;;;;;5053762;28;20239;-68
2023/04/07 11:40:37;;;;;;;;;;;;;;;;;;5053348;28;19933;-70
2023/04/07 11:43:03;;;;;;;;;;;;;;;;;;5071702;28;20357;-70
2023/04/07 11:45:29;;;;;;;;;;;;;;;;;;5063148;28;19930;-69
2023/04/07 11:47:55;;;;;;;;;;;;;;;;;;5053589;28;19931;-69
2023/04/07 11:50:21;;;;;;;;;;;;;;;;;;5071295;28;19924;-69
2023/04/07 11:52:47;;;;;;;;;;;;;;;;;;5036941;28;19956;-69
2023/04/07 11:55:13;;;;;;;;;;;;;;;;;;5052645;28;19946;-69
2023/04/07 11:57:39;;;;;;;;;;;;;;;;;;5036997;28;20269;-70
2023/04/07 12:00:04;;;;;;;;;;;;;;;;;;5053083;28;19924;-70
2023/04/07 12:02:31;;;;;;;;;;;;;;;;;;5063696;28;19974;-70
2023/04/07 12:04:57;;;;;;;;;;;;;;;;;;5071590;28;19924;-70
2023/04/07 12:07:23;;;;;;;;;;;;;;;;;;5072266;28;19928;-70
2023/04/07 12:09:49;;;;;;;;;;;;;;;;;;5071779;28;20642;-70
2023/04/07 12:12:14;;;;;;;;;;;;;;;;;;5064346;28;20261;-69
2023/04/07 12:14:40;;;;;;;;;;;;;;;;;;5087971;28;19924;-72
2023/04/07 12:17:08;;;;;;;;;;;;;;;;;;5083390;28;19941;-72
2023/04/07 12:19:34;;;;;;;;;;;;;;;;;;5104819;28;20304;-72
2023/04/07 12:22:00;;;;;;;;;;;;;;;;;;5072604;28;19920;-72
2023/04/07 12:24:27;;;;;;;;;;;;;;;;;;5085386;28;19921;-72
2023/04/07 12:26:53;;;;;;;;;;;;;;;;;;5073145;28;19920;-72
2023/04/07 12:29:19;;;;;;;;;;;;;;;;;;5064960;28;20368;-72
2023/04/07 12:31:45;;;;;;;;;;;;;;;;;;5090172;28;20452;-72
2023/04/07 12:34:11;;;;;;;;;;;;;;;;;;5072491;28;19928;-73
2023/04/07 12:36:37;;;;;;;;;;;;;;;;;;5042480;28;20341;-72
2023/04/07 12:39:03;;;;;;;;;;;;;;;;;;5078734;28;19920;-72
2023/04/07 12:41:30;;;;;;;;;;;;;;;;;;5076610;28;19947;-72
2023/04/07 12:43:56;;;;;;;;;;;;;;;;;;5076048;28;19920;-72
2023/04/07 12:46:22;;;;;;;;;;;;;;;;;;5073808;28;19998;-72
2023/04/07 12:48:48;;;;;;;;;;;;;;;;;;5069832;28;19935;-72
2023/04/07 12:51:14;;;;;;;;;;;;;;;;;;5074455;28;20041;-72
2023/04/07 12:53:40;;;;;;;;;;;;;;;;;;5075741;28;19920;-72
2023/04/07 12:56:06;;;;;;;;;;;;;;;;;;5076450;28;20383;-72
2023/04/07 12:58:32;;;;;;;;;;;;;;;;;;5076532;28;19924;-72
2023/04/07 13:00:59;;;;;;;;;;;;;;;;;;5076123;28;19954;-72
2023/04/07 13:03:25;;;;;;;;;;;;;;;;;;5076474;28;19928;-72
2023/04/07 13:05:53;;;;;;;;;;;;;;;;;;5076311;28;19920;-71
2023/04/07 13:08:20;;;;;;;;;;;;;;;;;;5076269;28;19924;-72
2023/04/07 13:10:46;;;;;;;;;;;;;;;;;;5077022;28;19927;-71
2023/04/07 13:13:12;;;;;;;;;;;;;;;;;;5056407;28;20281;-72
2023/04/07 13:15:38;;;;;;;;;;;;;;;;;;5056657;28;19925;-72
2023/04/07 13:18:03;;;;;;;;;;;;;;;;;;5058605;28;19986;-72
2023/04/07 13:20:29;;;;;;;;;;;;;;;;;;5093748;28;19928;-72
2023/04/07 13:22:55;;;;;;;;;;;;;;;;;;5075542;28;19927;-72
2023/04/07 13:25:21;;;;;;;;;;;;;;;;;;5112558;28;19920;-72
2023/04/07 13:27:47;;;;;;;;;;;;;;;;;;5087856;28;19924;-70
2023/04/07 13:30:13;;;;;;;;;;;;;;;;;;5094393;28;19924;-70
2023/04/07 13:32:39;;;;;;;;;;;;;;;;;;5063437;28;19920;-72
2023/04/07 13:35:05;;;;;;;;;;;;;;;;;;5106087;28;20436;-72
2023/04/07 13:37:31;;;;;;;;;;;;;;;;;;5062791;28;20007;-72
2023/04/07 13:39:57;;;;;;;;;;;;;;;;;;5077317;28;20396;-72
2023/04/07 13:42:23;;;;;;;;;;;;;;;;;;5056751;28;19920;-72
2023/04/07 13:44:49;;;;;;;;;;;;;;;;;;5070037;28;19924;-72
2023/04/07 13:47:18;;;;;;;;;;;;;;;;;;5056706;28;20273;-71
2023/04/07 13:49:44;;;;;;;;;;;;;;;;;;5074149;28;19924;-72
2023/04/07 13:52:10;;;;;;;;;;;;;;;;;;5054126;28;19920;-71
2023/04/07 13:54:37;;;;;;;;;;;;;;;;;;5075102;28;19927;-71
2023/04/07 13:57:03;;;;;;;;;;;;;;;;;;5069406;28;20002;-71
2023/04/07 13:59:29;;;;;;;;;;;;;;;;;;5056844;28;20062;-71
2023/04/07 14:01:55;;;;;;;;;;;;;;;;;;5072916;28;19920;-72
2023/04/07 14:04:21;;;;;;;;;;;;;;;;;;5093439;28;20296;-71
2023/04/07 14:06:47;;;;;;;;;;;;;;;;;;5091167;28;19924;-71
2023/04/07 14:09:13;;;;;;;;;;;;;;;;;;5071866;28;19926;-71
2023/04/07 14:11:39;;;;;;;;;;;;;;;;;;5082014;28;19924;-71
2023/04/07 14:14:05;;;;;;;;;;;;;;;;;;5075001;28;19924;-69
2023/04/07 14:16:31;;;;;;;;;;;;;;;;;;5069452;28;19927;-69
2023/04/07 14:18:57;;;;;;;;;;;;;;;;;;5088336;28;19928;-69
2023/04/07 14:21:23;;;;;;;;;;;;;;;;;;5099659;28;19928;-69
2023/04/07 14:23:50;;;;;;;;;;;;;;;;;;5092671;28;20008;-69
2023/04/07 14:26:15;;;;;;;;;;;;;;;;;;5086107;28;19924;-69
2023/04/07 14:28:41;;;;;;;;;;;;;;;;;;5060436;28;19989;-69
2023/04/07 14:31:07;;;;;;;;;;;;;;;;;;5073931;28;19931;-70
2023/04/07 14:33:33;;;;;;;;;;;;;;;;;;5092580;28;19926;-71
2023/04/07 14:35:59;;;;;;;;;;;;;;;;;;5086175;28;20456;-70
2023/04/07 14:38:26;;;;;;;;;;;;;;;;;;5072801;28;19935;-70
2023/04/07 14:40:51;;;;;;;;;;;;;;;;;;5072325;28;19924;-69
2023/04/07 14:43:17;;;;;;;;;;;;;;;;;;5109405;28;19943;-69
2023/04/07 14:45:44;;;;;;;;;;;;;;;;;;5092859;28;19924;-69
2023/04/07 14:48:10;;;;;;;;;;;;;;;;;;5072250;28;19927;-69
2023/04/07 14:50:36;;;;;;;;;;;;;;;;;;5073432;28;19920;-69
2023/04/07 14:53:03;;;;;;;;;;;;;;;;;;5091125;28;20375;-69
2023/04/07 14:55:30;;;;;;;;;;;;;;;;;;5073893;28;20007;-69
2023/04/07 14:57:56;;;;;;;;;;;;;;;;;;5090367;28;19928;-69
2023/04/07 15:00:24;;;;;;;;;;;;;;;;;;5062793;28;20039;-69
2023/04/07 15:02:50;;;;;;;;;;;;;;;;;;5092398;28;19999;-69
2023/04/07 15:05:15;;;;;;;;;;;;;;;;;;5091780;28;20548;-69
2023/04/07 15:07:44;;;;;;;;;;;;;;;;;;5073791;28;19950;-69
2023/04/07 15:10:10;;;;;;;;;;;;;;;;;;5091075;28;19931;-69
2023/04/07 15:12:36;;;;;;;;;;;;;;;;;;5091813;28;19920;-69
2023/04/07 15:15:02;;;;;;;;;;;;;;;;;;5089989;28;19931;-69
2023/04/07 15:17:28;;;;;;;;;;;;;;;;;;5053811;28;19955;-69
2023/04/07 15:19:54;;;;;;;;;;;;;;;;;;5090221;28;19947;-69
2023/04/07 15:22:20;;;;;;;;;;;;;;;;;;5074604;28;19924;-69
2023/04/07 15:24:46;;;;;;;;;;;;;;;;;;5090112;28;19932;-69
2023/04/07 15:27:12;;;;;;;;;;;;;;;;;;5091691;28;19932;-69
2023/04/07 15:29:41;;;;;;;;;;;;;;;;;;5072915;28;20361;-69
2023/04/07 15:32:06;;;;;;;;;;;;;;;;;;5071758;28;19931;-69
2023/04/07 15:34:32;;;;;;;;;;;;;;;;;;5073280;28;19920;-69
2023/04/07 15:36:58;;;;;;;;;;;;;;;;;;5072041;28;19931;-69
2023/04/07 15:39:24;;;;;;;;;;;;;;;;;;5089252;28;19928;-69
2023/04/07 15:41:50;;;;;;;;;;;;;;;;;;5090443;28;19971;-69
2023/04/07 15:44:17;;;;;;;;;;;;;;;;;;5090570;28;19928;-69
2023/04/07 15:46:43;;;;;;;;;;;;;;;;;;5090616;28;19923;-69
2023/04/07 15:49:09;;;;;;;;;;;;;;;;;;5085804;28;19974;-69
2023/04/07 15:51:35;;;;;;;;;;;;;;;;;;5089976;28;20602;-69
2023/04/07 15:54:01;;;;;;;;;;;;;;;;;;5091414;28;19924;-71
2023/04/07 15:56:27;;;;;;;;;;;;;;;;;;5073738;28;19960;-73
2023/04/07 15:58:53;;;;;;;;;;;;;;;;;;5073068;28;20423;-71
2023/04/07 16:01:19;;;;;;;;;;;;;;;;;;5073353;28;19974;-72
2023/04/07 16:03:46;;;;;;;;;;;;;;;;;;5067848;28;20118;-72
2023/04/07 16:06:12;;;;;;;;;;;;;;;;;;5036404;28;19921;-73
2023/04/07 16:08:37;;;;;;;;;;;;;;;;;;5053169;28;19978;-72
2023/04/07 16:11:03;;;;;;;;;;;;;;;;;;5036653;28;19924;-73
2023/04/07 16:13:29;;;;;;;;;;;;;;;;;;5040336;28;19920;-72
2023/04/07 16:15:56;;;;;;;;;;;;;;;;;;5040218;28;19943;-73
2023/04/07 16:18:21;;;;;;;;;;;;;;;;;;5056603;28;20061;-72
2023/04/07 16:20:47;;;;;;;;;;;;;;;;;;5056242;28;20373;-72
2023/04/07 16:23:13;;;;;;;;;;;;;;;;;;5091689;28;20383;-72
2023/04/07 16:25:39;;;;;;;;;;;;;;;;;;5076029;28;19926;-72
2023/04/07 16:28:05;;;;;;;;;;;;;;;;;;5075274;28;19962;-72
2023/04/07 16:30:31;;;;;;;;;;;;;;;;;;5076551;28;19920;-72
2023/04/07 16:32:59;;;;;;;;;;;;;;;;;;5063783;28;20019;-73
2023/04/07 16:35:25;;;;;;;;;;;;;;;;;;5074400;28;19930;-73
2023/04/07 16:37:53;;;;;;;;;;;;;;;;;;5047725;28;20006;-72